sensor_id;sensor_type;location;lat;lon;timestamp;P1;durP1;ratioP1;P2;durP2;ratioP2
24873;SDS011;12945;42.648;23.370;2023-04-29T00:01:01;9.65;;;4.70;;
24873;SDS011;12945;42.648;23.370;2023-04-29T00:03:27;7.63;;;4.53;;
24873;SDS011;12945;42.648;23.370;2023-04-29T00:05:56;8.88;;;4.60;;
24873;SDS011;12945;42.648;23.370;2023-04-29T00:08:21;13.07;;;5.10;;
24873;SDS011;12945;42.648;23.370;2023-04-29T00:10:46;11.07;;;4.22;;
24873;SDS011;12945;42.648;23.370;2023-04-29T00:13:12;9.95;;;4.90;;
24873;SDS011;12945;42.648;23.370;2023-04-29T00:15:37;9.35;;;4.97;;
24873;SDS011;12945;42.648;23.370;2023-04-29T00:18:03;11.27;;;4.93;;
24873;SDS011;12945;42.648;23.370;2023-04-29T00:20:28;11.77;;;4.82;;
24873;SDS011;12945;42.648;23.370;2023-04-29T00:22:54;9.60;;;4.85;;
24873;SDS011;12945;42.648;23.370;2023-04-29T00:25:19;7.70;;;4.53;;
24873;SDS011;12945;42.648;23.370;2023-04-29T00:27:44;12.23;;;5.15;;
24873;SDS011;12945;42.648;23.370;2023-04-29T00:30:09;13.80;;;4.90;;
24873;SDS011;12945;42.648;23.370;2023-04-29T00:32:35;16.92;;;4.70;;
24873;SDS011;12945;42.648;23.370;2023-04-29T00:35:00;8.35;;;4.65;;
24873;SDS011;12945;42.648;23.370;2023-04-29T00:37:26;8.52;;;4.93;;
24873;SDS011;12945;42.648;23.370;2023-04-29T00:39:51;11.05;;;5.10;;
24873;SDS011;12945;42.648;23.370;2023-04-29T00:42:16;9.13;;;4.82;;
24873;SDS011;12945;42.648;23.370;2023-04-29T00:44:42;11.23;;;6.28;;
24873;SDS011;12945;42.648;23.370;2023-04-29T00:47:07;9.00;;;5.03;;
24873;SDS011;12945;42.648;23.370;2023-04-29T00:49:36;9.85;;;5.57;;
24873;SDS011;12945;42.648;23.370;2023-04-29T00:52:01;11.27;;;5.50;;
24873;SDS011;12945;42.648;23.370;2023-04-29T00:54:26;12.38;;;5.35;;
24873;SDS011;12945;42.648;23.370;2023-04-29T00:56:52;12.68;;;5.88;;
24873;SDS011;12945;42.648;23.370;2023-04-29T00:59:18;13.60;;;7.25;;
24873;SDS011;12945;42.648;23.370;2023-04-29T01:01:44;18.48;;;7.82;;
24873;SDS011;12945;42.648;23.370;2023-04-29T01:04:10;14.35;;;7.38;;
24873;SDS011;12945;42.648;23.370;2023-04-29T01:06:51;18.20;;;8.68;;
24873;SDS011;12945;42.648;23.370;2023-04-29T01:14:28;16.17;;;7.80;;
24873;SDS011;12945;42.648;23.370;2023-04-29T01:16:55;23.05;;;6.72;;
24873;SDS011;12945;42.648;23.370;2023-04-29T01:19:30;17.25;;;6.95;;
24873;SDS011;12945;42.648;23.370;2023-04-29T01:22:01;15.23;;;6.63;;
24873;SDS011;12945;42.648;23.370;2023-04-29T01:24:26;13.13;;;7.25;;
24873;SDS011;12945;42.648;23.370;2023-04-29T01:26:55;12.27;;;6.75;;
24873;SDS011;12945;42.648;23.370;2023-04-29T01:29:26;9.00;;;4.93;;
24873;SDS011;12945;42.648;23.370;2023-04-29T01:32:05;13.05;;;6.82;;
24873;SDS011;12945;42.648;23.370;2023-04-29T01:34:53;12.05;;;6.57;;
24873;SDS011;12945;42.648;23.370;2023-04-29T01:42:52;17.83;;;7.15;;
24873;SDS011;12945;42.648;23.370;2023-04-29T01:45:18;16.92;;;6.80;;
24873;SDS011;12945;42.648;23.370;2023-04-29T01:47:45;12.32;;;6.43;;
24873;SDS011;12945;42.648;23.370;2023-04-29T01:50:11;15.90;;;5.93;;
24873;SDS011;12945;42.648;23.370;2023-04-29T01:52:36;18.33;;;5.85;;
24873;SDS011;12945;42.648;23.370;2023-04-29T01:55:02;16.33;;;6.22;;
24873;SDS011;12945;42.648;23.370;2023-04-29T01:57:27;13.88;;;6.10;;
24873;SDS011;12945;42.648;23.370;2023-04-29T01:59:53;15.13;;;6.13;;
24873;SDS011;12945;42.648;23.370;2023-04-29T02:02:18;16.83;;;6.47;;
24873;SDS011;12945;42.648;23.370;2023-04-29T02:04:47;17.35;;;6.57;;
24873;SDS011;12945;42.648;23.370;2023-04-29T02:07:13;14.00;;;7.10;;
24873;SDS011;12945;42.648;23.370;2023-04-29T02:09:38;15.93;;;7.03;;
24873;SDS011;12945;42.648;23.370;2023-04-29T02:12:04;12.77;;;7.47;;
24873;SDS011;12945;42.648;23.370;2023-04-29T02:14:29;15.32;;;7.53;;
24873;SDS011;12945;42.648;23.370;2023-04-29T02:16:55;21.50;;;9.30;;
24873;SDS011;12945;42.648;23.370;2023-04-29T02:19:20;15.77;;;8.50;;
24873;SDS011;12945;42.648;23.370;2023-04-29T02:21:46;14.95;;;8.32;;
24873;SDS011;12945;42.648;23.370;2023-04-29T02:24:11;14.27;;;6.65;;
24873;SDS011;12945;42.648;23.370;2023-04-29T02:26:36;11.60;;;6.00;;
24873;SDS011;12945;42.648;23.370;2023-04-29T02:29:02;18.45;;;7.80;;
24873;SDS011;12945;42.648;23.370;2023-04-29T02:31:27;15.80;;;7.45;;
24873;SDS011;12945;42.648;23.370;2023-04-29T02:33:53;12.18;;;5.35;;
24873;SDS011;12945;42.648;23.370;2023-04-29T02:36:18;10.27;;;5.85;;
24873;SDS011;12945;42.648;23.370;2023-04-29T02:38:44;15.88;;;6.40;;
24873;SDS011;12945;42.648;23.370;2023-04-29T02:41:09;23.75;;;6.97;;
24873;SDS011;12945;42.648;23.370;2023-04-29T02:43:34;16.95;;;6.63;;
24873;SDS011;12945;42.648;23.370;2023-04-29T02:46:00;12.57;;;6.35;;
24873;SDS011;12945;42.648;23.370;2023-04-29T02:48:25;18.05;;;7.30;;
24873;SDS011;12945;42.648;23.370;2023-04-29T02:50:51;13.63;;;6.53;;
24873;SDS011;12945;42.648;23.370;2023-04-29T02:53:16;18.83;;;6.70;;
24873;SDS011;12945;42.648;23.370;2023-04-29T02:55:42;13.35;;;6.85;;
24873;SDS011;12945;42.648;23.370;2023-04-29T02:58:08;20.83;;;7.95;;
24873;SDS011;12945;42.648;23.370;2023-04-29T03:00:33;18.55;;;7.95;;
24873;SDS011;12945;42.648;23.370;2023-04-29T03:02:58;13.63;;;6.90;;
24873;SDS011;12945;42.648;23.370;2023-04-29T03:05:23;16.40;;;7.70;;
24873;SDS011;12945;42.648;23.370;2023-04-29T03:07:49;19.83;;;7.60;;
24873;SDS011;12945;42.648;23.370;2023-04-29T03:10:14;15.77;;;7.80;;
24873;SDS011;12945;42.648;23.370;2023-04-29T03:12:39;13.02;;;7.00;;
24873;SDS011;12945;42.648;23.370;2023-04-29T03:15:05;16.63;;;7.40;;
24873;SDS011;12945;42.648;23.370;2023-04-29T03:17:31;22.23;;;7.78;;
24873;SDS011;12945;42.648;23.370;2023-04-29T03:19:57;16.95;;;7.25;;
24873;SDS011;12945;42.648;23.370;2023-04-29T03:22:23;23.50;;;7.88;;
24873;SDS011;12945;42.648;23.370;2023-04-29T03:24:48;15.48;;;7.78;;
24873;SDS011;12945;42.648;23.370;2023-04-29T03:27:13;14.90;;;8.20;;
24873;SDS011;12945;42.648;23.370;2023-04-29T03:29:39;18.02;;;7.88;;
24873;SDS011;12945;42.648;23.370;2023-04-29T03:32:04;22.30;;;8.30;;
24873;SDS011;12945;42.648;23.370;2023-04-29T03:34:29;18.98;;;8.95;;
24873;SDS011;12945;42.648;23.370;2023-04-29T03:36:55;21.08;;;9.20;;
24873;SDS011;12945;42.648;23.370;2023-04-29T03:39:21;16.17;;;8.57;;
24873;SDS011;12945;42.648;23.370;2023-04-29T03:41:46;22.13;;;9.45;;
24873;SDS011;12945;42.648;23.370;2023-04-29T03:44:12;19.80;;;8.88;;
24873;SDS011;12945;42.648;23.370;2023-04-29T03:46:37;21.40;;;9.13;;
24873;SDS011;12945;42.648;23.370;2023-04-29T03:49:02;14.75;;;8.38;;
24873;SDS011;12945;42.648;23.370;2023-04-29T03:51:28;18.73;;;9.00;;
24873;SDS011;12945;42.648;23.370;2023-04-29T03:53:53;25.80;;;9.05;;
24873;SDS011;12945;42.648;23.370;2023-04-29T03:56:22;21.73;;;8.93;;
24873;SDS011;12945;42.648;23.370;2023-04-29T03:58:47;14.93;;;7.82;;
24873;SDS011;12945;42.648;23.370;2023-04-29T04:01:13;16.23;;;9.23;;
24873;SDS011;12945;42.648;23.370;2023-04-29T04:03:39;16.65;;;9.18;;
24873;SDS011;12945;42.648;23.370;2023-04-29T04:06:04;23.45;;;8.77;;
24873;SDS011;12945;42.648;23.370;2023-04-29T04:08:29;23.08;;;9.68;;
24873;SDS011;12945;42.648;23.370;2023-04-29T04:10:55;24.50;;;8.85;;
24873;SDS011;12945;42.648;23.370;2023-04-29T04:13:27;17.80;;;8.85;;
24873;SDS011;12945;42.648;23.370;2023-04-29T04:15:52;19.45;;;8.93;;
24873;SDS011;12945;42.648;23.370;2023-04-29T04:18:17;21.90;;;8.05;;
24873;SDS011;12945;42.648;23.370;2023-04-29T04:20:43;22.73;;;7.32;;
24873;SDS011;12945;42.648;23.370;2023-04-29T04:23:08;16.63;;;7.22;;
24873;SDS011;12945;42.648;23.370;2023-04-29T04:25:33;17.80;;;7.40;;
24873;SDS011;12945;42.648;23.370;2023-04-29T04:27:59;18.63;;;8.13;;
24873;SDS011;12945;42.648;23.370;2023-04-29T04:30:24;16.63;;;7.20;;
24873;SDS011;12945;42.648;23.370;2023-04-29T04:32:49;14.93;;;6.88;;
24873;SDS011;12945;42.648;23.370;2023-04-29T04:35:15;22.10;;;7.00;;
24873;SDS011;12945;42.648;23.370;2023-04-29T04:37:40;16.65;;;6.53;;
24873;SDS011;12945;42.648;23.370;2023-04-29T04:40:05;15.23;;;6.63;;
24873;SDS011;12945;42.648;23.370;2023-04-29T04:42:32;14.75;;;5.75;;
24873;SDS011;12945;42.648;23.370;2023-04-29T04:44:57;14.52;;;6.43;;
24873;SDS011;12945;42.648;23.370;2023-04-29T04:47:22;23.48;;;7.18;;
24873;SDS011;12945;42.648;23.370;2023-04-29T04:49:48;15.18;;;6.78;;
24873;SDS011;12945;42.648;23.370;2023-04-29T04:52:18;19.58;;;7.95;;
24873;SDS011;12945;42.648;23.370;2023-04-29T04:54:44;18.30;;;7.30;;
24873;SDS011;12945;42.648;23.370;2023-04-29T04:57:10;16.75;;;7.70;;
24873;SDS011;12945;42.648;23.370;2023-04-29T04:59:35;15.25;;;7.38;;
24873;SDS011;12945;42.648;23.370;2023-04-29T05:02:01;16.52;;;8.32;;
24873;SDS011;12945;42.648;23.370;2023-04-29T05:04:26;24.20;;;8.00;;
24873;SDS011;12945;42.648;23.370;2023-04-29T05:06:51;26.67;;;9.45;;
24873;SDS011;12945;42.648;23.370;2023-04-29T05:09:17;26.88;;;8.95;;
24873;SDS011;12945;42.648;23.370;2023-04-29T05:11:42;21.30;;;8.88;;
24873;SDS011;12945;42.648;23.370;2023-04-29T05:14:07;24.70;;;8.57;;
24873;SDS011;12945;42.648;23.370;2023-04-29T05:16:32;26.35;;;8.45;;
24873;SDS011;12945;42.648;23.370;2023-04-29T05:18:58;13.27;;;6.88;;
24873;SDS011;12945;42.648;23.370;2023-04-29T05:21:23;17.33;;;6.97;;
24873;SDS011;12945;42.648;23.370;2023-04-29T05:23:48;16.40;;;5.90;;
24873;SDS011;12945;42.648;23.370;2023-04-29T05:26:14;11.43;;;5.90;;
24873;SDS011;12945;42.648;23.370;2023-04-29T05:28:39;9.43;;;5.22;;
24873;SDS011;12945;42.648;23.370;2023-04-29T05:31:04;12.23;;;4.93;;
24873;SDS011;12945;42.648;23.370;2023-04-29T05:33:30;10.00;;;5.43;;
24873;SDS011;12945;42.648;23.370;2023-04-29T05:35:55;13.98;;;5.72;;
24873;SDS011;12945;42.648;23.370;2023-04-29T05:38:20;14.63;;;5.65;;
24873;SDS011;12945;42.648;23.370;2023-04-29T05:40:46;11.38;;;5.10;;
24873;SDS011;12945;42.648;23.370;2023-04-29T05:43:14;9.38;;;5.30;;
24873;SDS011;12945;42.648;23.370;2023-04-29T05:45:39;10.45;;;5.20;;
24873;SDS011;12945;42.648;23.370;2023-04-29T05:48:04;8.98;;;5.22;;
24873;SDS011;12945;42.648;23.370;2023-04-29T05:50:30;13.18;;;5.45;;
24873;SDS011;12945;42.648;23.370;2023-04-29T05:52:55;10.20;;;4.97;;
24873;SDS011;12945;42.648;23.370;2023-04-29T05:55:20;8.57;;;4.82;;
24873;SDS011;12945;42.648;23.370;2023-04-29T05:57:46;9.18;;;4.70;;
24873;SDS011;12945;42.648;23.370;2023-04-29T06:00:11;13.02;;;5.72;;
24873;SDS011;12945;42.648;23.370;2023-04-29T06:02:37;10.27;;;4.95;;
24873;SDS011;12945;42.648;23.370;2023-04-29T06:05:04;15.65;;;5.63;;
24873;SDS011;12945;42.648;23.370;2023-04-29T06:07:29;11.30;;;4.95;;
24873;SDS011;12945;42.648;23.370;2023-04-29T06:09:54;14.18;;;5.63;;
24873;SDS011;12945;42.648;23.370;2023-04-29T06:12:20;11.43;;;5.18;;
24873;SDS011;12945;42.648;23.370;2023-04-29T06:14:45;13.88;;;6.03;;
24873;SDS011;12945;42.648;23.370;2023-04-29T06:17:11;9.98;;;5.60;;
24873;SDS011;12945;42.648;23.370;2023-04-29T06:19:36;10.95;;;5.80;;
24873;SDS011;12945;42.648;23.370;2023-04-29T06:22:02;9.80;;;5.40;;
24873;SDS011;12945;42.648;23.370;2023-04-29T06:24:27;9.73;;;5.43;;
24873;SDS011;12945;42.648;23.370;2023-04-29T06:26:53;14.35;;;6.57;;
24873;SDS011;12945;42.648;23.370;2023-04-29T06:29:18;13.45;;;7.10;;
24873;SDS011;12945;42.648;23.370;2023-04-29T06:31:44;16.25;;;7.20;;
24873;SDS011;12945;42.648;23.370;2023-04-29T06:34:09;20.23;;;7.65;;
24873;SDS011;12945;42.648;23.370;2023-04-29T06:36:35;12.90;;;6.88;;
24873;SDS011;12945;42.648;23.370;2023-04-29T06:39:00;13.38;;;7.00;;
24873;SDS011;12945;42.648;23.370;2023-04-29T06:41:25;13.07;;;7.30;;
24873;SDS011;12945;42.648;23.370;2023-04-29T06:43:51;14.90;;;6.70;;
24873;SDS011;12945;42.648;23.370;2023-04-29T06:46:16;14.32;;;7.20;;
24873;SDS011;12945;42.648;23.370;2023-04-29T06:48:41;13.70;;;6.57;;
24873;SDS011;12945;42.648;23.370;2023-04-29T06:51:07;16.80;;;7.80;;
24873;SDS011;12945;42.648;23.370;2023-04-29T06:53:32;10.77;;;6.30;;
24873;SDS011;12945;42.648;23.370;2023-04-29T06:55:58;12.38;;;6.60;;
24873;SDS011;12945;42.648;23.370;2023-04-29T06:58:23;11.65;;;6.68;;
24873;SDS011;12945;42.648;23.370;2023-04-29T07:00:49;15.75;;;6.95;;
24873;SDS011;12945;42.648;23.370;2023-04-29T07:03:15;14.02;;;7.35;;
24873;SDS011;12945;42.648;23.370;2023-04-29T07:05:40;16.45;;;7.72;;
24873;SDS011;12945;42.648;23.370;2023-04-29T07:08:07;12.50;;;6.50;;
24873;SDS011;12945;42.648;23.370;2023-04-29T07:10:34;13.60;;;7.35;;
24873;SDS011;12945;42.648;23.370;2023-04-29T07:12:59;16.00;;;7.63;;
24873;SDS011;12945;42.648;23.370;2023-04-29T07:15:28;23.35;;;7.40;;
24873;SDS011;12945;42.648;23.370;2023-04-29T07:17:54;11.10;;;6.63;;
24873;SDS011;12945;42.648;23.370;2023-04-29T07:20:19;12.10;;;7.15;;
24873;SDS011;12945;42.648;23.370;2023-04-29T07:22:45;13.70;;;7.00;;
24873;SDS011;12945;42.648;23.370;2023-04-29T07:25:10;12.32;;;7.43;;
24873;SDS011;12945;42.648;23.370;2023-04-29T07:27:36;19.27;;;7.65;;
24873;SDS011;12945;42.648;23.370;2023-04-29T07:30:01;12.75;;;6.53;;
24873;SDS011;12945;42.648;23.370;2023-04-29T07:32:27;14.13;;;7.25;;
24873;SDS011;12945;42.648;23.370;2023-04-29T07:34:52;15.25;;;7.18;;
24873;SDS011;12945;42.648;23.370;2023-04-29T07:37:18;14.93;;;7.78;;
24873;SDS011;12945;42.648;23.370;2023-04-29T07:39:44;20.00;;;7.18;;
24873;SDS011;12945;42.648;23.370;2023-04-29T07:42:10;16.60;;;7.40;;
24873;SDS011;12945;42.648;23.370;2023-04-29T07:44:35;17.13;;;7.38;;
24873;SDS011;12945;42.648;23.370;2023-04-29T07:47:00;14.27;;;7.68;;
24873;SDS011;12945;42.648;23.370;2023-04-29T07:49:25;14.27;;;7.07;;
24873;SDS011;12945;42.648;23.370;2023-04-29T07:51:51;11.13;;;6.55;;
24873;SDS011;12945;42.648;23.370;2023-04-29T07:54:16;22.65;;;7.10;;
24873;SDS011;12945;42.648;23.370;2023-04-29T07:56:43;18.70;;;7.05;;
24873;SDS011;12945;42.648;23.370;2023-04-29T07:59:08;11.57;;;6.13;;
24873;SDS011;12945;42.648;23.370;2023-04-29T08:01:34;11.60;;;6.28;;
24873;SDS011;12945;42.648;23.370;2023-04-29T08:03:59;19.98;;;6.95;;
24873;SDS011;12945;42.648;23.370;2023-04-29T08:06:24;10.25;;;6.65;;
24873;SDS011;12945;42.648;23.370;2023-04-29T08:08:50;15.60;;;6.38;;
24873;SDS011;12945;42.648;23.370;2023-04-29T08:11:18;11.18;;;6.13;;
24873;SDS011;12945;42.648;23.370;2023-04-29T08:13:44;14.80;;;6.55;;
24873;SDS011;12945;42.648;23.370;2023-04-29T08:16:10;14.00;;;5.53;;
24873;SDS011;12945;42.648;23.370;2023-04-29T08:18:35;9.07;;;5.57;;
24873;SDS011;12945;42.648;23.370;2023-04-29T08:21:01;14.38;;;5.78;;
24873;SDS011;12945;42.648;23.370;2023-04-29T08:23:26;9.90;;;6.05;;
24873;SDS011;12945;42.648;23.370;2023-04-29T08:25:51;11.80;;;4.22;;
24873;SDS011;12945;42.648;23.370;2023-04-29T08:28:19;12.20;;;5.97;;
24873;SDS011;12945;42.648;23.370;2023-04-29T08:30:44;11.13;;;5.35;;
24873;SDS011;12945;42.648;23.370;2023-04-29T08:33:10;9.55;;;4.75;;
24873;SDS011;12945;42.648;23.370;2023-04-29T08:35:36;14.10;;;5.22;;
24873;SDS011;12945;42.648;23.370;2023-04-29T08:38:02;10.07;;;4.65;;
24873;SDS011;12945;42.648;23.370;2023-04-29T08:40:29;21.10;;;5.20;;
24873;SDS011;12945;42.648;23.370;2023-04-29T08:42:55;10.43;;;5.25;;
24873;SDS011;12945;42.648;23.370;2023-04-29T08:45:21;6.65;;;3.92;;
24873;SDS011;12945;42.648;23.370;2023-04-29T08:47:48;8.52;;;4.40;;
24873;SDS011;12945;42.648;23.370;2023-04-29T08:50:15;11.18;;;4.50;;
24873;SDS011;12945;42.648;23.370;2023-04-29T08:52:41;8.77;;;3.92;;
24873;SDS011;12945;42.648;23.370;2023-04-29T08:55:06;9.23;;;3.90;;
24873;SDS011;12945;42.648;23.370;2023-04-29T08:57:34;10.27;;;4.32;;
24873;SDS011;12945;42.648;23.370;2023-04-29T09:00:03;11.07;;;3.90;;
24873;SDS011;12945;42.648;23.370;2023-04-29T09:02:29;10.95;;;4.05;;
24873;SDS011;12945;42.648;23.370;2023-04-29T09:05:05;7.97;;;3.92;;
24873;SDS011;12945;42.648;23.370;2023-04-29T09:07:33;10.10;;;4.03;;
24873;SDS011;12945;42.648;23.370;2023-04-29T09:09:59;7.43;;;3.53;;
24873;SDS011;12945;42.648;23.370;2023-04-29T09:12:25;9.57;;;3.22;;
24873;SDS011;12945;42.648;23.370;2023-04-29T09:14:50;6.82;;;3.58;;
24873;SDS011;12945;42.648;23.370;2023-04-29T09:17:16;8.40;;;3.35;;
24873;SDS011;12945;42.648;23.370;2023-04-29T09:19:42;9.57;;;3.67;;
24873;SDS011;12945;42.648;23.370;2023-04-29T09:22:08;7.40;;;4.22;;
24873;SDS011;12945;42.648;23.370;2023-04-29T09:24:34;18.98;;;7.07;;
24873;SDS011;12945;42.648;23.370;2023-04-29T09:26:59;8.27;;;3.90;;
24873;SDS011;12945;42.648;23.370;2023-04-29T09:29:24;14.27;;;8.13;;
24873;SDS011;12945;42.648;23.370;2023-04-29T09:31:50;7.78;;;3.92;;
24873;SDS011;12945;42.648;23.370;2023-04-29T09:34:17;8.98;;;3.58;;
24873;SDS011;12945;42.648;23.370;2023-04-29T09:36:54;7.97;;;3.40;;
24873;SDS011;12945;42.648;23.370;2023-04-29T09:39:23;7.68;;;4.63;;
24873;SDS011;12945;42.648;23.370;2023-04-29T09:44:17;6.18;;;3.13;;
24873;SDS011;12945;42.648;23.370;2023-04-29T09:46:42;9.55;;;3.70;;
24873;SDS011;12945;42.648;23.370;2023-04-29T09:49:20;7.78;;;3.45;;
24873;SDS011;12945;42.648;23.370;2023-04-29T09:51:51;8.77;;;3.60;;
24873;SDS011;12945;42.648;23.370;2023-04-29T09:54:20;10.32;;;3.85;;
24873;SDS011;12945;42.648;23.370;2023-04-29T09:56:47;7.90;;;4.13;;
24873;SDS011;12945;42.648;23.370;2023-04-29T09:59:13;9.68;;;4.28;;
24873;SDS011;12945;42.648;23.370;2023-04-29T10:01:38;9.25;;;4.65;;
24873;SDS011;12945;42.648;23.370;2023-04-29T10:04:04;8.55;;;4.30;;
24873;SDS011;12945;42.648;23.370;2023-04-29T10:06:30;11.48;;;5.00;;
24873;SDS011;12945;42.648;23.370;2023-04-29T10:08:55;13.88;;;5.90;;
24873;SDS011;12945;42.648;23.370;2023-04-29T10:11:21;14.70;;;5.43;;
24873;SDS011;12945;42.648;23.370;2023-04-29T10:13:46;9.23;;;5.20;;
24873;SDS011;12945;42.648;23.370;2023-04-29T10:16:23;11.90;;;5.50;;
24873;SDS011;12945;42.648;23.370;2023-04-29T10:18:51;12.25;;;5.50;;
24873;SDS011;12945;42.648;23.370;2023-04-29T10:21:17;11.25;;;5.75;;
24873;SDS011;12945;42.648;23.370;2023-04-29T10:23:46;14.63;;;6.40;;
24873;SDS011;12945;42.648;23.370;2023-04-29T10:26:12;11.57;;;5.40;;
24873;SDS011;12945;42.648;23.370;2023-04-29T10:28:37;13.57;;;5.88;;
24873;SDS011;12945;42.648;23.370;2023-04-29T10:31:04;17.95;;;6.38;;
24873;SDS011;12945;42.648;23.370;2023-04-29T10:33:31;12.40;;;6.07;;
24873;SDS011;12945;42.648;23.370;2023-04-29T10:36:00;10.95;;;6.00;;
24873;SDS011;12945;42.648;23.370;2023-04-29T10:38:30;17.85;;;6.25;;
24873;SDS011;12945;42.648;23.370;2023-04-29T10:40:58;9.98;;;5.45;;
24873;SDS011;12945;42.648;23.370;2023-04-29T10:43:26;13.38;;;5.88;;
24873;SDS011;12945;42.648;23.370;2023-04-29T10:48:35;10.38;;;5.38;;
24873;SDS011;12945;42.648;23.370;2023-04-29T10:51:01;9.25;;;5.30;;
24873;SDS011;12945;42.648;23.370;2023-04-29T10:53:27;7.47;;;4.43;;
24873;SDS011;12945;42.648;23.370;2023-04-29T10:55:55;14.18;;;5.70;;
24873;SDS011;12945;42.648;23.370;2023-04-29T10:58:34;10.15;;;4.88;;
24873;SDS011;12945;42.648;23.370;2023-04-29T11:00:59;9.57;;;4.95;;
24873;SDS011;12945;42.648;23.370;2023-04-29T11:06:09;8.32;;;4.38;;
24873;SDS011;12945;42.648;23.370;2023-04-29T11:08:37;9.85;;;4.75;;
24873;SDS011;12945;42.648;23.370;2023-04-29T11:11:07;11.75;;;3.60;;
24873;SDS011;12945;42.648;23.370;2023-04-29T11:13:32;5.75;;;3.05;;
24873;SDS011;12945;42.648;23.370;2023-04-29T11:18:30;10.20;;;3.30;;
24873;SDS011;12945;42.648;23.370;2023-04-29T11:23:29;9.75;;;3.63;;
24873;SDS011;12945;42.648;23.370;2023-04-29T11:25:55;7.55;;;3.20;;
24873;SDS011;12945;42.648;23.370;2023-04-29T11:28:21;8.27;;;3.47;;
24873;SDS011;12945;42.648;23.370;2023-04-29T11:30:48;6.40;;;2.78;;
24873;SDS011;12945;42.648;23.370;2023-04-29T11:33:14;5.32;;;2.63;;
24873;SDS011;12945;42.648;23.370;2023-04-29T11:35:39;6.25;;;2.60;;
24873;SDS011;12945;42.648;23.370;2023-04-29T11:38:05;5.75;;;2.70;;
24873;SDS011;12945;42.648;23.370;2023-04-29T11:40:31;8.80;;;3.15;;
24873;SDS011;12945;42.648;23.370;2023-04-29T11:42:57;8.75;;;2.83;;
24873;SDS011;12945;42.648;23.370;2023-04-29T11:45:22;4.72;;;2.70;;
24873;SDS011;12945;42.648;23.370;2023-04-29T11:47:47;7.63;;;2.88;;
24873;SDS011;12945;42.648;23.370;2023-04-29T11:50:14;14.63;;;3.00;;
24873;SDS011;12945;42.648;23.370;2023-04-29T11:52:44;4.65;;;2.58;;
24873;SDS011;12945;42.648;23.370;2023-04-29T11:55:10;11.57;;;2.85;;
24873;SDS011;12945;42.648;23.370;2023-04-29T11:57:36;5.40;;;2.72;;
24873;SDS011;12945;42.648;23.370;2023-04-29T12:00:01;7.68;;;2.92;;
24873;SDS011;12945;42.648;23.370;2023-04-29T12:02:30;3.28;;;2.17;;
24873;SDS011;12945;42.648;23.370;2023-04-29T12:04:55;5.40;;;1.98;;
24873;SDS011;12945;42.648;23.370;2023-04-29T12:07:22;5.47;;;2.45;;
24873;SDS011;12945;42.648;23.370;2023-04-29T12:09:47;6.00;;;2.17;;
24873;SDS011;12945;42.648;23.370;2023-04-29T12:12:13;8.70;;;2.33;;
24873;SDS011;12945;42.648;23.370;2023-04-29T12:14:38;6.20;;;2.45;;
24873;SDS011;12945;42.648;23.370;2023-04-29T12:17:04;4.20;;;2.28;;
24873;SDS011;12945;42.648;23.370;2023-04-29T12:19:30;9.27;;;2.22;;
24873;SDS011;12945;42.648;23.370;2023-04-29T12:21:59;5.10;;;2.30;;
24873;SDS011;12945;42.648;23.370;2023-04-29T12:24:25;9.23;;;2.47;;
24873;SDS011;12945;42.648;23.370;2023-04-29T12:26:50;8.30;;;2.35;;
24873;SDS011;12945;42.648;23.370;2023-04-29T12:29:19;6.80;;;2.50;;
24873;SDS011;12945;42.648;23.370;2023-04-29T12:31:46;6.80;;;2.10;;
24873;SDS011;12945;42.648;23.370;2023-04-29T12:34:11;5.85;;;2.33;;
24873;SDS011;12945;42.648;23.370;2023-04-29T12:36:37;7.43;;;2.58;;
24873;SDS011;12945;42.648;23.370;2023-04-29T12:39:05;5.22;;;2.40;;
24873;SDS011;12945;42.648;23.370;2023-04-29T12:41:40;8.50;;;2.40;;
24873;SDS011;12945;42.648;23.370;2023-04-29T12:44:06;7.97;;;3.53;;
24873;SDS011;12945;42.648;23.370;2023-04-29T12:46:36;14.75;;;2.78;;
24873;SDS011;12945;42.648;23.370;2023-04-29T12:49:02;8.27;;;2.30;;
24873;SDS011;12945;42.648;23.370;2023-04-29T12:51:28;6.72;;;2.55;;
24873;SDS011;12945;42.648;23.370;2023-04-29T12:53:56;7.20;;;2.65;;
24873;SDS011;12945;42.648;23.370;2023-04-29T12:56:21;7.70;;;2.65;;
24873;SDS011;12945;42.648;23.370;2023-04-29T12:58:46;8.15;;;2.80;;
24873;SDS011;12945;42.648;23.370;2023-04-29T13:01:12;7.07;;;2.55;;
24873;SDS011;12945;42.648;23.370;2023-04-29T13:03:37;3.83;;;2.60;;
24873;SDS011;12945;42.648;23.370;2023-04-29T13:06:04;10.90;;;2.70;;
24873;SDS011;12945;42.648;23.370;2023-04-29T13:08:30;7.35;;;2.42;;
24873;SDS011;12945;42.648;23.370;2023-04-29T13:10:55;7.30;;;2.80;;
24873;SDS011;12945;42.648;23.370;2023-04-29T13:13:20;7.97;;;2.40;;
24873;SDS011;12945;42.648;23.370;2023-04-29T13:15:46;6.85;;;2.38;;
24873;SDS011;12945;42.648;23.370;2023-04-29T13:18:11;5.47;;;2.25;;
24873;SDS011;12945;42.648;23.370;2023-04-29T13:20:36;8.45;;;2.15;;
24873;SDS011;12945;42.648;23.370;2023-04-29T13:23:02;8.02;;;2.17;;
24873;SDS011;12945;42.648;23.370;2023-04-29T13:25:27;5.32;;;2.15;;
24873;SDS011;12945;42.648;23.370;2023-04-29T13:27:52;7.30;;;2.05;;
24873;SDS011;12945;42.648;23.370;2023-04-29T13:30:18;5.18;;;2.22;;
24873;SDS011;12945;42.648;23.370;2023-04-29T13:32:43;4.20;;;1.90;;
24873;SDS011;12945;42.648;23.370;2023-04-29T13:35:08;2.50;;;1.40;;
24873;SDS011;12945;42.648;23.370;2023-04-29T13:37:34;4.38;;;1.77;;
24873;SDS011;12945;42.648;23.370;2023-04-29T13:39:59;3.90;;;1.75;;
24873;SDS011;12945;42.648;23.370;2023-04-29T13:42:24;5.50;;;2.10;;
24873;SDS011;12945;42.648;23.370;2023-04-29T13:44:50;6.20;;;2.40;;
24873;SDS011;12945;42.648;23.370;2023-04-29T13:47:17;7.28;;;2.10;;
24873;SDS011;12945;42.648;23.370;2023-04-29T13:49:43;4.55;;;2.30;;
24873;SDS011;12945;42.648;23.370;2023-04-29T13:52:08;7.20;;;1.92;;
24873;SDS011;12945;42.648;23.370;2023-04-29T13:54:34;3.78;;;1.63;;
24873;SDS011;12945;42.648;23.370;2023-04-29T13:57:00;5.15;;;2.03;;
24873;SDS011;12945;42.648;23.370;2023-04-29T13:59:28;6.00;;;1.80;;
24873;SDS011;12945;42.648;23.370;2023-04-29T14:01:53;3.38;;;1.88;;
24873;SDS011;12945;42.648;23.370;2023-04-29T14:04:19;4.85;;;1.95;;
24873;SDS011;12945;42.648;23.370;2023-04-29T14:06:44;3.50;;;1.70;;
24873;SDS011;12945;42.648;23.370;2023-04-29T14:09:09;2.58;;;1.70;;
24873;SDS011;12945;42.648;23.370;2023-04-29T14:11:35;3.40;;;2.00;;
24873;SDS011;12945;42.648;23.370;2023-04-29T14:14:01;3.45;;;1.58;;
24873;SDS011;12945;42.648;23.370;2023-04-29T14:16:27;6.57;;;2.10;;
24873;SDS011;12945;42.648;23.370;2023-04-29T14:18:52;11.57;;;2.17;;
24873;SDS011;12945;42.648;23.370;2023-04-29T14:21:18;3.97;;;1.80;;
24873;SDS011;12945;42.648;23.370;2023-04-29T14:23:46;4.00;;;2.50;;
24873;SDS011;12945;42.648;23.370;2023-04-29T14:26:11;7.65;;;3.17;;
24873;SDS011;12945;42.648;23.370;2023-04-29T14:28:36;5.03;;;3.22;;
24873;SDS011;12945;42.648;23.370;2023-04-29T14:31:02;4.38;;;2.47;;
24873;SDS011;12945;42.648;23.370;2023-04-29T14:33:27;4.28;;;2.00;;
24873;SDS011;12945;42.648;23.370;2023-04-29T14:35:53;4.10;;;2.13;;
24873;SDS011;12945;42.648;23.370;2023-04-29T14:38:18;4.05;;;2.10;;
24873;SDS011;12945;42.648;23.370;2023-04-29T14:40:43;4.47;;;2.25;;
24873;SDS011;12945;42.648;23.370;2023-04-29T14:43:08;7.30;;;2.17;;